createdAt,value
2023-02-15T00:00:06.360Z,12.2
2023-02-15T00:01:12.880Z,12.2
2023-02-15T00:02:20.127Z,12.3
2023-02-15T00:03:27.238Z,12.2
2023-02-15T00:04:34.180Z,12.3
2023-02-15T00:05:41.423Z,12.3
2023-02-15T00:06:47.916Z,12.2
2023-02-15T00:07:55.010Z,12.2
2023-02-15T00:09:02.141Z,12.2
2023-02-15T00:10:09.401Z,12.2
2023-02-15T00:11:16.353Z,12.2
2023-02-15T00:12:22.897Z,12.2
2023-02-15T00:13:30.061Z,12.2
2023-02-15T00:14:37.134Z,12.2
2023-02-15T00:15:44.300Z,12.3
2023-02-15T00:16:51.532Z,12.3
2023-02-15T00:17:57.957Z,12.3
2023-02-15T00:19:04.989Z,12.3
2023-02-15T00:20:12.125Z,12.2
2023-02-15T00:21:19.325Z,12.2
2023-02-15T00:22:26.350Z,12.2
2023-02-15T00:23:32.906Z,12.2
2023-02-15T00:24:40.072Z,12.3
2023-02-15T00:25:47.860Z,12.3
2023-02-15T00:26:54.341Z,12.3
2023-02-15T00:28:01.388Z,12.3
2023-02-15T00:29:07.977Z,12.3
2023-02-15T00:30:15.119Z,12.2
2023-02-15T00:31:22.160Z,12.2
2023-02-15T00:32:29.251Z,12.2
2023-02-15T00:33:36.423Z,12.3
2023-02-15T00:34:42.955Z,12.2
2023-02-15T00:35:50.066Z,12.3
2023-02-15T00:36:56.613Z,12.3
2023-02-15T00:36:57.118Z,12.3
2023-02-15T00:38:04.304Z,12.4
2023-02-15T00:39:11.425Z,12.4
2023-02-15T00:40:17.996Z,12.3
2023-02-15T00:41:25.389Z,12.3
2023-02-15T00:42:32.234Z,12.3
2023-02-15T00:44:46.434Z,12.3
2023-02-15T00:45:52.999Z,12.3
2023-02-15T00:47:00.109Z,12.4
2023-02-15T00:48:07.214Z,12.4
2023-02-15T00:49:14.284Z,12.4
2023-02-15T00:50:23.698Z,12.4
2023-02-15T00:51:28.016Z,12.4
2023-02-15T00:52:35.098Z,12.4
2023-02-15T00:53:42.197Z,12.3
2023-02-15T00:54:49.306Z,12.3
2023-02-15T00:55:55.869Z,12.3
2023-02-15T00:57:03.051Z,12.3
2023-02-15T00:58:10.101Z,12.3
2023-02-15T00:59:17.196Z,12.3
2023-02-15T01:00:24.297Z,12.4
2023-02-15T01:01:30.941Z,12.4
2023-02-15T01:02:38.031Z,12.4
2023-02-15T01:03:45.617Z,12.4
2023-02-15T01:04:52.171Z,12.4
2023-02-15T01:05:59.558Z,12.4
2023-02-15T01:07:05.894Z,12.4
2023-02-15T01:08:12.971Z,12.3
2023-02-15T01:09:20.137Z,12.3
2023-02-15T01:10:27.248Z,12.3
2023-02-15T01:11:34.332Z,12.3
2023-02-15T01:12:40.890Z,12.3
2023-02-15T01:13:48.015Z,12.3
2023-02-15T01:14:55.093Z,12.3
2023-02-15T01:16:02.482Z,12.3
2023-02-15T01:17:09.348Z,12.3
2023-02-15T01:18:15.990Z,12.3
2023-02-15T01:19:23.102Z,12.3
2023-02-15T01:20:30.119Z,12.3
2023-02-15T01:21:37.217Z,12.3
2023-02-15T01:22:44.335Z,12.3
2023-02-15T01:23:50.938Z,12.3
2023-02-15T01:24:58.049Z,12.2
2023-02-15T01:26:05.087Z,12.2
2023-02-15T01:27:12.195Z,12.2
2023-02-15T01:28:19.346Z,12.2
2023-02-15T01:29:25.918Z,12.2
2023-02-15T01:30:33.037Z,12.2
2023-02-15T01:31:40.432Z,12.2
2023-02-15T01:32:47.282Z,12.2
2023-02-15T01:33:54.352Z,12.2
2023-02-15T01:35:00.903Z,12.2
2023-02-15T01:36:08.063Z,12.3
2023-02-15T01:37:15.157Z,12.3
2023-02-15T01:38:22.229Z,12.4
2023-02-15T01:39:29.353Z,12.4
2023-02-15T01:40:35.939Z,12.5
2023-02-15T01:41:43.035Z,12.5
2023-02-15T01:42:50.228Z,12.5
2023-02-15T01:43:57.291Z,12.6
2023-02-15T01:45:03.804Z,12.7
2023-02-15T01:46:10.991Z,12.7
2023-02-15T01:47:18.090Z,12.7
2023-02-15T01:48:25.272Z,12.7
2023-02-15T01:49:32.248Z,12.7
2023-02-15T01:50:38.806Z,12.7
2023-02-15T01:51:45.965Z,12.7
2023-02-15T01:52:53.111Z,12.7
2023-02-15T01:54:00.202Z,12.6
2023-02-15T01:55:08.024Z,12.7
2023-02-15T01:56:13.945Z,12.7
2023-02-15T01:57:20.984Z,12.7
2023-02-15T01:58:28.148Z,12.7
2023-02-15T01:59:34.605Z,12.7
2023-02-15T02:00:42.249Z,12.7
2023-02-15T02:01:48.960Z,12.7
2023-02-15T02:02:55.988Z,12.7
2023-02-15T02:04:03.043Z,12.8
2023-02-15T02:05:10.233Z,12.8
2023-02-15T02:06:17.266Z,12.8
2023-02-15T02:07:24.377Z,12.9
2023-02-15T02:08:30.985Z,12.9
2023-02-15T02:09:38.095Z,12.9
2023-02-15T02:10:45.186Z,12.9
2023-02-15T02:12:58.918Z,12.9
2023-02-15T02:14:05.976Z,12.9
2023-02-15T02:15:13.079Z,12.9
2023-02-15T02:16:20.248Z,12.8
2023-02-15T02:17:27.305Z,12.9
2023-02-15T02:18:33.877Z,12.8
2023-02-15T02:19:40.948Z,12.9
2023-02-15T02:20:48.134Z,12.9
2023-02-15T02:21:55.186Z,12.9
2023-02-15T02:23:02.378Z,12.9
2023-02-15T02:24:08.879Z,13
2023-02-15T02:25:16.025Z,13
2023-02-15T02:26:23.081Z,12.9
2023-02-15T02:27:30.235Z,12.9
2023-02-15T02:28:37.303Z,12.9
2023-02-15T02:29:43.901Z,12.9
2023-02-15T02:30:51.206Z,12.9
2023-02-15T02:31:58.218Z,12.9
2023-02-15T02:34:12.487Z,13
2023-02-15T02:35:18.923Z,13
2023-02-15T02:36:26.007Z,12.9
2023-02-15T02:37:33.138Z,12.9
2023-02-15T02:38:40.296Z,12.9
2023-02-15T02:39:47.325Z,12.9
2023-02-15T02:40:53.872Z,12.9
2023-02-15T02:42:00.979Z,12.9
2023-02-15T02:43:08.128Z,12.9
2023-02-15T02:44:15.230Z,12.9
2023-02-15T02:45:22.295Z,12.9
2023-02-15T02:46:29.047Z,12.9
2023-02-15T02:47:36.117Z,12.8
2023-02-15T02:48:43.143Z,12.9
2023-02-15T02:49:50.244Z,12.9
2023-02-15T02:50:56.845Z,12.9
2023-02-15T02:53:11.067Z,13.2
2023-02-15T02:54:18.290Z,13.2
2023-02-15T02:55:25.264Z,13.2
2023-02-15T02:56:31.867Z,13.2
2023-02-15T02:57:38.894Z,13.2
2023-02-15T02:58:46.100Z,13.1
2023-02-15T02:59:53.145Z,13.1
2023-02-15T03:01:00.290Z,13.1
2023-02-15T03:02:06.898Z,13
2023-02-15T03:03:13.977Z,13.1
2023-02-15T03:04:21.063Z,13
2023-02-15T03:05:28.374Z,13
2023-02-15T03:06:35.266Z,13
2023-02-15T03:07:41.837Z,12.9
2023-02-15T03:08:48.935Z,13
2023-02-15T03:09:56.083Z,13
2023-02-15T03:11:03.134Z,13
2023-02-15T03:12:10.315Z,13
2023-02-15T03:13:16.956Z,13
2023-02-15T03:14:23.923Z,12.9
2023-02-15T03:15:31.085Z,12.9
2023-02-15T03:16:38.271Z,12.9
2023-02-15T03:17:45.246Z,12.8
2023-02-15T03:18:51.900Z,12.8
2023-02-15T03:19:59.369Z,12.8
2023-02-15T03:21:06.073Z,12.8
2023-02-15T03:22:12.635Z,12.9
2023-02-15T03:23:20.327Z,12.9
2023-02-15T03:24:27.386Z,12.9
2023-02-15T03:25:33.949Z,12.9
2023-02-15T03:26:41.091Z,12.9
2023-02-15T03:27:48.237Z,12.9
2023-02-15T03:28:55.258Z,12.8
2023-02-15T03:30:01.976Z,12.8
2023-02-15T03:31:09.209Z,12.7
2023-02-15T03:32:16.149Z,12.7
2023-02-15T03:33:23.210Z,12.6
2023-02-15T03:34:29.746Z,12.6
2023-02-15T03:35:36.885Z,12.6
2023-02-15T03:36:43.981Z,12.6
2023-02-15T03:37:51.148Z,12.7
2023-02-15T03:38:58.242Z,12.7
2023-02-15T03:41:11.918Z,12.6
2023-02-15T03:42:19.146Z,12.6
2023-02-15T03:43:26.178Z,12.5
2023-02-15T03:44:33.258Z,12.4
2023-02-15T03:45:40.341Z,12.4
2023-02-15T03:46:46.951Z,12.4
2023-02-15T03:47:54.023Z,12.3
2023-02-15T03:49:01.160Z,12.3
2023-02-15T03:50:08.224Z,12.2
2023-02-15T03:51:15.296Z,12.2
2023-02-15T03:52:21.971Z,12.1
2023-02-15T03:53:29.087Z,12.1
2023-02-15T03:54:36.186Z,12.1
2023-02-15T03:56:50.352Z,12.1
2023-02-15T03:57:56.947Z,12.1
2023-02-15T03:59:04.050Z,12.2
2023-02-15T04:00:11.159Z,12.2
2023-02-15T04:01:18.378Z,12.2
2023-02-15T04:02:25.344Z,12.2
2023-02-15T04:03:31.951Z,12.3
2023-02-15T04:04:39.122Z,12.3
2023-02-15T04:05:47.854Z,12.4
2023-02-15T04:06:53.213Z,12.4
2023-02-15T04:08:00.400Z,12.4
2023-02-15T04:09:06.949Z,12.4
2023-02-15T04:10:14.031Z,12.3
2023-02-15T04:11:21.135Z,12.4
2023-02-15T04:12:28.269Z,12.4
2023-02-15T04:13:34.850Z,12.4
2023-02-15T04:14:42.462Z,12.4
2023-02-15T04:15:49.067Z,12.5
2023-02-15T04:16:56.267Z,12.5
2023-02-15T04:18:03.272Z,12.5
2023-02-15T04:19:09.949Z,12.5
2023-02-15T04:20:16.961Z,12.5
2023-02-15T04:21:24.013Z,12.5
2023-02-15T04:22:31.151Z,12.5
2023-02-15T04:23:38.337Z,12.4
2023-02-15T04:24:44.871Z,12.4
2023-02-15T04:33:41.246Z,12.3
2023-02-15T04:34:48.272Z,12.3
2023-02-15T04:35:54.865Z,12.3
2023-02-15T04:37:01.973Z,12.3
2023-02-15T04:38:09.131Z,12.3
2023-02-15T04:39:16.203Z,12.3
2023-02-15T04:40:23.243Z,12.4
2023-02-15T04:41:29.894Z,12.4
2023-02-15T04:42:36.994Z,12.3
2023-02-15T04:43:44.114Z,12.4
2023-02-15T04:44:50.690Z,12.3
2023-02-15T04:44:51.144Z,12.3
2023-02-15T04:45:58.376Z,12.3
2023-02-15T04:47:04.837Z,12.3
2023-02-15T04:48:12.047Z,12.2
2023-02-15T04:49:19.111Z,12.2
2023-02-15T04:50:26.181Z,12.2
2023-02-15T04:51:33.303Z,12.2
2023-02-15T04:52:39.890Z,12.3
2023-02-15T04:53:47.023Z,12.3
2023-02-15T04:54:54.075Z,12.3
2023-02-15T04:56:01.501Z,12.3
2023-02-15T04:57:08.292Z,12.3
2023-02-15T04:58:14.949Z,12.3
2023-02-15T05:00:29.145Z,12.2
2023-02-15T05:01:36.290Z,12.2
2023-02-15T05:02:42.774Z,12.2
2023-02-15T05:03:49.984Z,12.2
2023-02-15T05:04:57.029Z,12.2
2023-02-15T05:06:04.312Z,12.2
2023-02-15T05:07:11.274Z,12.2
2023-02-15T05:09:24.864Z,12.2
2023-02-15T05:10:32.048Z,12.2
2023-02-15T05:11:39.101Z,12.2
2023-02-15T05:12:46.230Z,12.2
2023-02-15T05:13:52.884Z,12.2
2023-02-15T05:14:59.971Z,12.2
2023-02-15T05:16:07.032Z,12.2
2023-02-15T05:17:14.120Z,12.1
2023-02-15T05:18:21.364Z,12
2023-02-15T05:19:27.863Z,12
2023-02-15T05:20:34.903Z,12
2023-02-15T05:21:42.027Z,11.9
2023-02-15T05:22:49.121Z,11.9
2023-02-15T05:23:56.316Z,11.8
2023-02-15T05:25:02.795Z,11.7
2023-02-15T05:26:09.972Z,11.7
2023-02-15T05:27:17.161Z,11.6
2023-02-15T05:28:24.126Z,11.6
2023-02-15T05:29:31.277Z,11.5
2023-02-15T05:30:38.005Z,11.4
2023-02-15T05:31:45.247Z,11.4
2023-02-15T05:32:52.081Z,11.4
2023-02-15T05:33:59.176Z,11.3
2023-02-15T05:35:06.268Z,11.3
2023-02-15T05:36:12.808Z,11.3
2023-02-15T05:37:19.945Z,11.2
2023-02-15T05:38:27.131Z,11.2
2023-02-15T05:39:34.129Z,11.2
2023-02-15T05:40:41.286Z,11.2
2023-02-15T05:41:47.843Z,11.1
2023-02-15T05:42:55.235Z,11.1
2023-02-15T05:44:02.226Z,11
2023-02-15T05:45:09.169Z,11
2023-02-15T05:46:16.444Z,11
2023-02-15T05:47:22.858Z,10.9
2023-02-15T05:48:30.026Z,10.9
2023-02-15T05:49:37.127Z,10.9
2023-02-15T05:50:44.169Z,10.9
2023-02-15T05:51:51.274Z,10.9
2023-02-15T05:52:57.870Z,10.9
2023-02-15T05:54:05.010Z,10.8
2023-02-15T05:55:12.100Z,10.8
2023-02-15T05:56:19.194Z,10.8
2023-02-15T05:57:26.315Z,10.7
2023-02-15T05:58:32.871Z,10.7
2023-02-15T05:59:40.012Z,10.7
2023-02-15T06:00:47.082Z,10.7
2023-02-15T06:01:54.156Z,10.7
2023-02-15T06:04:07.939Z,10.6
2023-02-15T06:05:14.989Z,10.6
2023-02-15T06:06:22.136Z,10.6
2023-02-15T06:07:29.201Z,10.6
2023-02-15T06:08:36.268Z,10.6
2023-02-15T06:09:43.123Z,10.6
2023-02-15T06:10:50.022Z,10.6
2023-02-15T06:11:57.141Z,10.6
2023-02-15T06:13:04.224Z,10.6
2023-02-15T06:14:11.304Z,10.5
2023-02-15T06:15:17.932Z,10.5
2023-02-15T06:16:24.992Z,10.4
2023-02-15T06:17:32.109Z,10.4
2023-02-15T06:18:39.284Z,10.4
2023-02-15T06:19:45.785Z,10.4
2023-02-15T06:20:53.031Z,10.4
2023-02-15T06:22:00.555Z,10.3
2023-02-15T06:23:07.121Z,10.3
2023-02-15T06:24:14.245Z,10.3
2023-02-15T06:25:20.804Z,10.3
2023-02-15T06:26:27.910Z,10.2
2023-02-15T06:27:34.981Z,10.2
2023-02-15T06:28:42.209Z,10.2
2023-02-15T06:29:49.247Z,10.2
2023-02-15T06:30:55.835Z,10.2
2023-02-15T06:32:03.108Z,10.2
2023-02-15T06:33:10.012Z,10.2
2023-02-15T06:34:17.176Z,10.1
2023-02-15T06:35:24.238Z,10.1
2023-02-15T06:37:37.984Z,10
2023-02-15T06:38:44.992Z,10
2023-02-15T06:39:52.169Z,9.9
2023-02-15T06:40:59.280Z,9.9
2023-02-15T06:42:05.827Z,9.8
2023-02-15T06:43:12.953Z,9.7
2023-02-15T06:44:20.077Z,9.7
2023-02-15T06:45:27.138Z,9.7
2023-02-15T06:46:34.394Z,9.6
2023-02-15T06:47:40.867Z,9.5
2023-02-15T06:48:47.980Z,9.5
2023-02-15T06:49:55.048Z,9.5
2023-02-15T06:51:02.158Z,9.4
2023-02-15T06:52:09.271Z,9.3
2023-02-15T06:53:15.911Z,9.3
2023-02-15T06:54:22.964Z,9.3
2023-02-15T06:55:30.065Z,9.3
2023-02-15T06:56:37.182Z,9.2
2023-02-15T06:57:44.236Z,9.2
2023-02-15T06:58:50.911Z,9.2
2023-02-15T06:59:57.970Z,9.1
2023-02-15T07:01:05.090Z,9.1
2023-02-15T07:02:12.181Z,9.1
2023-02-15T07:03:19.257Z,9
2023-02-15T07:04:25.972Z,8.9
2023-02-15T07:05:32.959Z,8.8
2023-02-15T07:07:47.214Z,8.8
2023-02-15T07:08:54.467Z,8.7
2023-02-15T07:10:00.842Z,8.7
2023-02-15T07:11:07.995Z,8.6
2023-02-15T07:12:15.041Z,8.6
2023-02-15T07:13:22.277Z,8.6
2023-02-15T07:14:29.322Z,8.6
2023-02-15T07:15:35.850Z,8.5
2023-02-15T07:16:43.052Z,8.5
2023-02-15T07:17:50.125Z,8.5
2023-02-15T07:18:57.247Z,8.5
2023-02-15T07:20:03.730Z,8.4
2023-02-15T07:21:10.904Z,8.4
2023-02-15T07:22:18.243Z,8.4
2023-02-15T07:23:25.235Z,8.3
2023-02-15T07:24:32.215Z,8.3
2023-02-15T07:25:39.286Z,8.3
2023-02-15T07:26:45.905Z,8.3
2023-02-15T07:27:53.108Z,8.3
2023-02-15T07:29:00.144Z,8.2
2023-02-15T07:30:07.315Z,8.2
2023-02-15T07:31:14.457Z,8.1
2023-02-15T07:32:20.947Z,8.1
2023-02-15T07:33:28.106Z,8.1
2023-02-15T07:34:35.068Z,8.1
2023-02-15T07:35:42.218Z,8.1
2023-02-15T07:36:48.865Z,8
2023-02-15T07:37:55.927Z,8
2023-02-15T07:39:03.048Z,7.9
2023-02-15T07:40:10.182Z,7.9
2023-02-15T07:41:17.233Z,7.9
2023-02-15T07:42:23.804Z,7.8
2023-02-15T07:43:30.899Z,7.8
2023-02-15T07:44:38.106Z,7.8
2023-02-15T07:45:48.017Z,7.7
2023-02-15T07:46:52.370Z,7.7
2023-02-15T07:47:58.767Z,7.6
2023-02-15T07:49:05.949Z,7.6
2023-02-15T07:50:13.030Z,7.6
2023-02-15T07:51:20.148Z,7.6
2023-02-15T07:52:27.235Z,7.5
2023-02-15T07:53:33.853Z,7.5
2023-02-15T07:54:40.952Z,7.6
2023-02-15T07:55:48.014Z,7.5
2023-02-15T07:56:55.132Z,7.6
2023-02-15T07:58:02.282Z,7.5
2023-02-15T07:59:08.886Z,7.5
2023-02-15T08:00:15.926Z,7.5
2023-02-15T08:01:23.016Z,7.5
2023-02-15T08:02:30.184Z,7.4
2023-02-15T08:03:37.369Z,7.4
2023-02-15T08:05:50.931Z,7.4
2023-02-15T08:06:58.071Z,7.4
2023-02-15T08:08:05.112Z,7.4
2023-02-15T08:09:12.281Z,7.4
2023-02-15T08:11:25.959Z,7.4
2023-02-15T08:12:33.047Z,7.4
2023-02-15T08:13:40.220Z,7.4
2023-02-15T08:14:47.252Z,7.4
2023-02-15T08:15:53.868Z,7.4
2023-02-15T08:17:00.928Z,7.4
2023-02-15T08:18:08.089Z,7.4
2023-02-15T08:19:15.211Z,7.3
2023-02-15T08:32:39.071Z,7.3
2023-02-15T08:33:46.178Z,7.3
2023-02-15T08:34:53.094Z,7.3
2023-02-15T08:36:00.235Z,7.3
2023-02-15T08:37:06.847Z,7.3
2023-02-15T08:38:13.862Z,7.3
2023-02-15T08:39:21.003Z,7.3
2023-02-15T08:40:28.151Z,7.3
2023-02-15T08:41:35.213Z,7.3
2023-02-15T08:42:42.273Z,7.3
2023-02-15T08:43:48.946Z,7.3
2023-02-15T08:44:56.021Z,7.3
2023-02-15T08:46:03.178Z,7.2
2023-02-15T08:47:10.258Z,7.2
2023-02-15T08:48:16.803Z,7.2
2023-02-15T08:49:23.943Z,7.2
2023-02-15T08:50:31.002Z,7.2
2023-02-15T08:51:38.141Z,7.2
2023-02-15T08:52:45.200Z,7.2
2023-02-15T08:53:51.856Z,7.2
2023-02-15T08:54:58.942Z,7.2
2023-02-15T08:56:06.005Z,7.2
2023-02-15T08:57:13.099Z,7.1
2023-02-15T08:58:20.238Z,7.1
2023-02-15T08:59:26.860Z,7.1
2023-02-15T09:00:33.907Z,7.1
2023-02-15T09:01:41.023Z,7.1
2023-02-15T09:02:48.111Z,7.1
2023-02-15T09:03:55.227Z,7.1
2023-02-15T09:05:02.386Z,7.1
2023-02-15T09:06:08.933Z,7.1
2023-02-15T09:07:16.047Z,7.1
2023-02-15T09:08:23.192Z,7.1
2023-02-15T09:09:30.263Z,7
2023-02-15T09:10:36.867Z,7
2023-02-15T09:11:43.948Z,7
2023-02-15T09:12:51.042Z,7.1
2023-02-15T09:15:05.263Z,7
2023-02-15T09:16:11.936Z,7
2023-02-15T09:17:18.970Z,7
2023-02-15T09:18:26.092Z,7
2023-02-15T09:19:33.149Z,7
2023-02-15T09:20:40.291Z,7
2023-02-15T09:21:46.864Z,7
2023-02-15T09:22:57.256Z,7
2023-02-15T09:24:01.103Z,7
2023-02-15T09:25:08.158Z,7
2023-02-15T09:26:15.225Z,7
2023-02-15T09:27:21.888Z,7
2023-02-15T09:28:29.015Z,7
2023-02-15T09:29:36.121Z,7
2023-02-15T09:30:43.303Z,7
2023-02-15T09:31:50.451Z,7
2023-02-15T09:34:03.969Z,7.1
2023-02-15T09:35:11.057Z,7.1
2023-02-15T09:36:18.187Z,7.1
2023-02-15T09:37:25.268Z,7
2023-02-15T09:38:31.951Z,7
2023-02-15T09:39:39.018Z,7
2023-02-15T09:40:46.095Z,7
2023-02-15T09:41:53.194Z,7
2023-02-15T09:43:00.279Z,7
2023-02-15T09:44:06.884Z,7
2023-02-15T09:45:13.980Z,7
2023-02-15T09:46:21.122Z,7
2023-02-15T09:47:28.187Z,7
2023-02-15T09:48:35.331Z,7
2023-02-15T09:49:41.907Z,7
2023-02-15T09:50:49.004Z,7
2023-02-15T09:51:56.075Z,7
2023-02-15T09:53:03.156Z,7
2023-02-15T09:54:10.322Z,7
2023-02-15T09:55:16.915Z,7
2023-02-15T09:56:23.963Z,7
2023-02-15T09:57:31.147Z,7
2023-02-15T09:58:38.286Z,7
2023-02-15T09:59:44.761Z,7
2023-02-15T10:00:51.966Z,7
2023-02-15T10:01:59.001Z,7
2023-02-15T10:03:06.244Z,7
2023-02-15T10:04:13.227Z,7
2023-02-15T10:05:19.834Z,7
2023-02-15T10:06:26.943Z,7
2023-02-15T10:07:33.970Z,7
2023-02-15T10:08:41.235Z,7
2023-02-15T10:09:48.204Z,7
2023-02-15T10:10:54.800Z,7
2023-02-15T10:12:01.898Z,7
2023-02-15T10:13:09.092Z,7
2023-02-15T10:14:16.156Z,6.9
2023-02-15T10:15:23.185Z,6.8
2023-02-15T10:16:29.928Z,6.7
2023-02-15T10:18:43.994Z,6.5
2023-02-15T10:19:51.149Z,6.4
2023-02-15T10:20:58.259Z,6.4
2023-02-15T10:22:04.777Z,6.3
2023-02-15T10:23:11.931Z,6.3
2023-02-15T10:24:19.326Z,6.3
2023-02-15T10:25:26.123Z,6.3
2023-02-15T10:26:33.265Z,6.3
2023-02-15T10:27:39.822Z,6.4
2023-02-15T10:28:46.967Z,6.4
2023-02-15T10:29:54.094Z,6.4
2023-02-15T10:31:01.826Z,6.4
2023-02-15T10:32:08.409Z,6.4
2023-02-15T10:33:14.826Z,6.4
2023-02-15T10:34:22.090Z,6.5
2023-02-15T10:35:29.099Z,6.4
2023-02-15T10:36:36.156Z,6.5
2023-02-15T10:37:43.257Z,6.5
2023-02-15T10:38:49.892Z,6.6
2023-02-15T10:39:56.982Z,6.6
2023-02-15T10:41:04.366Z,6.7
2023-02-15T10:42:11.278Z,6.7
2023-02-15T10:43:18.286Z,6.7
2023-02-15T10:44:24.901Z,6.7
2023-02-15T10:45:31.948Z,6.7
2023-02-15T10:46:39.109Z,6.8
2023-02-15T10:47:46.204Z,6.8
2023-02-15T10:48:53.314Z,6.8
2023-02-15T10:49:59.907Z,6.8
2023-02-15T10:51:07.020Z,6.8
2023-02-15T10:52:14.075Z,6.8
2023-02-15T10:53:21.168Z,6.8
2023-02-15T10:54:28.386Z,6.8
2023-02-15T10:55:34.890Z,6.8
2023-02-15T10:56:41.991Z,6.8
2023-02-15T10:57:49.129Z,6.8
2023-02-15T10:58:56.166Z,6.9
2023-02-15T11:00:03.248Z,6.9
2023-02-15T11:02:16.993Z,6.9
2023-02-15T11:03:24.078Z,7
2023-02-15T11:04:31.279Z,7
2023-02-15T11:05:38.299Z,7
2023-02-15T11:06:44.881Z,7
2023-02-15T11:07:51.984Z,7
2023-02-15T11:08:59.128Z,7
2023-02-15T11:10:06.187Z,7
2023-02-15T11:11:13.259Z,7
2023-02-15T11:12:19.906Z,7
2023-02-15T11:13:27.052Z,7
2023-02-15T11:14:33.608Z,7
2023-02-15T11:14:34.100Z,7
2023-02-15T11:15:41.297Z,7
2023-02-15T11:16:48.313Z,7
2023-02-15T11:17:54.866Z,7
2023-02-15T11:19:02.070Z,7
2023-02-15T11:20:09.150Z,7
2023-02-15T11:22:22.765Z,7
2023-02-15T11:23:29.887Z,7
2023-02-15T11:24:37.078Z,7.1
2023-02-15T11:25:44.116Z,7.1
2023-02-15T11:26:51.313Z,7.1
2023-02-15T11:27:57.853Z,7.1
2023-02-15T11:29:04.890Z,7.2
2023-02-15T11:30:12.099Z,7.2
2023-02-15T11:31:19.254Z,7.3
2023-02-15T11:32:26.252Z,7.3
2023-02-15T11:33:32.806Z,7.3
2023-02-15T11:34:39.981Z,7.3
2023-02-15T11:35:47.908Z,7.4
2023-02-15T11:36:54.136Z,7.4
2023-02-15T11:38:01.766Z,7.5
2023-02-15T11:39:07.810Z,7.5
2023-02-15T11:40:15.416Z,7.5
2023-02-15T11:41:22.039Z,7.5
2023-02-15T11:42:29.127Z,7.5
2023-02-15T11:43:36.273Z,7.5
2023-02-15T11:44:42.811Z,7.5
2023-02-15T11:45:49.934Z,7.5
2023-02-15T11:46:57.027Z,7.5
2023-02-15T11:48:04.131Z,7.5
2023-02-15T11:49:11.306Z,7.5
2023-02-15T11:50:18.008Z,7.5
2023-02-15T11:51:24.936Z,7.5
2023-02-15T11:52:32.079Z,7.5
2023-02-15T11:53:39.328Z,7.5
2023-02-15T11:54:46.302Z,7.5
2023-02-15T11:55:52.805Z,7.6
2023-02-15T11:56:59.945Z,7.6
2023-02-15T11:58:07.107Z,7.6
2023-02-15T11:59:14.329Z,7.6
2023-02-15T12:00:21.306Z,7.5
2023-02-15T12:01:27.889Z,7.5
2023-02-15T12:02:35.273Z,7.6
2023-02-15T12:03:42.228Z,7.5
2023-02-15T12:04:49.241Z,7.5
2023-02-15T12:05:56.297Z,7.6
2023-02-15T12:07:03.081Z,7.6
2023-02-15T12:08:09.945Z,7.6
2023-02-15T12:09:17.137Z,7.6
2023-02-15T12:10:24.137Z,7.6
2023-02-15T12:11:31.269Z,7.6
2023-02-15T12:12:37.854Z,7.6
2023-02-15T12:13:44.929Z,7.5
2023-02-15T12:14:52.127Z,7.6
2023-02-15T12:15:59.263Z,7.5
2023-02-15T12:17:06.334Z,7.6
2023-02-15T12:18:12.830Z,7.6
2023-02-15T12:19:20.074Z,7.7
2023-02-15T12:20:27.194Z,7.7
2023-02-15T12:21:34.208Z,7.7
2023-02-15T12:22:41.284Z,7.8
2023-02-15T12:23:47.914Z,7.9
2023-02-15T12:26:02.091Z,7.8
2023-02-15T12:27:09.222Z,7.9
2023-02-15T12:28:16.336Z,7.9
2023-02-15T12:30:30.217Z,7.9
2023-02-15T12:31:37.192Z,7.9
2023-02-15T12:32:44.205Z,7.9
2023-02-15T12:33:51.347Z,7.9
2023-02-15T12:35:00.437Z,7.8
2023-02-15T12:36:05.184Z,7.8
2023-02-15T12:37:12.105Z,7.8
2023-02-15T12:38:19.245Z,7.7
2023-02-15T12:39:25.862Z,7.8
2023-02-15T12:40:32.907Z,7.7
2023-02-15T12:41:40.001Z,7.8
2023-02-15T12:42:47.108Z,7.8
2023-02-15T12:43:54.189Z,7.8
2023-02-15T12:45:00.833Z,7.8
2023-02-15T12:46:08.048Z,7.8
2023-02-15T12:47:15.016Z,7.8
2023-02-15T12:48:22.139Z,7.8
2023-02-15T12:49:29.313Z,7.8
2023-02-15T12:50:35.793Z,7.8
2023-02-15T12:51:43.201Z,7.8
2023-02-15T12:52:50.053Z,7.8
2023-02-15T12:53:57.148Z,7.8
2023-02-15T12:55:04.260Z,7.9
2023-02-15T12:56:10.859Z,7.9
2023-02-15T12:57:17.956Z,7.9
2023-02-15T12:58:25.025Z,7.9
2023-02-15T12:59:32.194Z,7.8
2023-02-15T13:00:39.378Z,7.8
2023-02-15T13:01:45.890Z,7.8
2023-02-15T13:02:52.930Z,7.8
2023-02-15T13:04:00.112Z,7.8
2023-02-15T13:05:07.133Z,7.8
2023-02-15T13:06:14.786Z,7.8
2023-02-15T13:07:20.859Z,7.9
2023-02-15T13:08:27.977Z,7.9
2023-02-15T13:09:35.136Z,7.9
2023-02-15T13:10:42.162Z,7.9
2023-02-15T13:11:49.283Z,8
2023-02-15T13:12:55.847Z,8.1
2023-02-15T13:14:02.978Z,8.1
2023-02-15T13:15:10.078Z,8.1
2023-02-15T13:16:17.242Z,8.1
2023-02-15T13:17:24.263Z,8.1
2023-02-15T13:18:30.891Z,8.1
2023-02-15T13:19:38.065Z,8.1
2023-02-15T13:20:45.082Z,8.1
2023-02-15T13:21:52.173Z,8
2023-02-15T13:22:59.242Z,8
2023-02-15T13:24:05.914Z,8
2023-02-15T13:25:12.944Z,8
2023-02-15T13:26:20.115Z,8
2023-02-15T13:27:27.207Z,8.1
2023-02-15T13:29:40.948Z,8.1
2023-02-15T13:30:47.985Z,8.1
2023-02-15T13:31:55.167Z,8
2023-02-15T13:33:02.179Z,8
2023-02-15T13:34:09.257Z,8
2023-02-15T13:35:15.943Z,8
2023-02-15T13:36:22.947Z,8
2023-02-15T13:37:30.114Z,7.9
2023-02-15T13:38:37.221Z,7.9
2023-02-15T13:39:44.372Z,7.9
2023-02-15T13:40:51.307Z,7.9
2023-02-15T13:41:58.000Z,7.9
2023-02-15T13:43:05.096Z,7.9
2023-02-15T13:44:12.232Z,7.9
2023-02-15T13:45:19.434Z,7.9
2023-02-15T13:46:25.892Z,7.9
2023-02-15T13:47:33.513Z,7.9
2023-02-15T13:48:48.380Z,7.9
2023-02-15T13:49:47.334Z,7.9
2023-02-15T13:50:54.292Z,7.9
2023-02-15T13:52:00.867Z,7.9
2023-02-15T13:53:08.067Z,7.9
2023-02-15T13:54:15.193Z,8
2023-02-15T13:55:22.199Z,8
2023-02-15T13:56:28.849Z,8.1
2023-02-15T13:58:43.053Z,8.1
2023-02-15T13:59:50.370Z,8.2
2023-02-15T14:00:57.272Z,8.2
2023-02-15T14:02:03.781Z,8.2
2023-02-15T14:03:10.958Z,8.2
2023-02-15T14:04:18.192Z,8.3
2023-02-15T14:05:25.138Z,8.3
2023-02-15T14:06:32.230Z,8.3
2023-02-15T14:07:38.836Z,8.3
2023-02-15T14:08:45.927Z,8.3
2023-02-15T14:09:53.023Z,8.4
2023-02-15T14:11:00.618Z,8.4
2023-02-15T14:12:07.273Z,8.4
2023-02-15T14:13:13.813Z,8.4
2023-02-15T14:14:21.027Z,8.4
2023-02-15T14:15:28.056Z,8.3
2023-02-15T14:16:35.194Z,8.4
2023-02-15T14:17:42.273Z,8.3
2023-02-15T14:18:48.815Z,8.3
2023-02-15T14:19:55.953Z,8.4
2023-02-15T14:21:03.579Z,8.3
2023-02-15T14:22:11.614Z,8.3
2023-02-15T14:23:17.317Z,8.3
2023-02-15T14:24:23.901Z,8.3
2023-02-15T14:25:30.948Z,8.2
2023-02-15T14:26:38.137Z,8.2
2023-02-15T14:27:45.145Z,8.2
2023-02-15T14:28:52.425Z,8.2
2023-02-15T14:29:58.950Z,8.1
2023-02-15T14:31:06.504Z,8.1
2023-02-15T14:33:20.265Z,8.1
2023-02-15T14:34:27.863Z,8.1
2023-02-15T14:35:33.845Z,8.1
2023-02-15T14:36:40.923Z,8.2
2023-02-15T14:37:48.072Z,8.2
2023-02-15T14:38:55.173Z,8.3
2023-02-15T14:40:02.254Z,8.3
2023-02-15T14:41:08.841Z,8.3
2023-02-15T14:42:15.954Z,8.3
2023-02-15T14:43:23.065Z,8.3
2023-02-15T14:44:30.244Z,8.3
2023-02-15T14:45:37.306Z,8.3
2023-02-15T14:46:43.872Z,8.4
2023-02-15T14:47:50.968Z,8.4
2023-02-15T14:48:58.109Z,8.4
2023-02-15T14:50:05.186Z,8.4
2023-02-15T14:51:12.302Z,8.4
2023-02-15T14:52:18.897Z,8.4
2023-02-15T14:53:25.980Z,8.4
2023-02-15T14:54:33.547Z,8.4
2023-02-15T14:55:40.237Z,8.4
2023-02-15T14:56:47.295Z,8.4
2023-02-15T14:57:53.839Z,8.4
2023-02-15T14:59:01.056Z,8.4
2023-02-15T15:00:09.200Z,8.4
2023-02-15T15:01:15.288Z,8.4
2023-02-15T15:02:21.824Z,8.4
2023-02-15T15:03:28.909Z,8.4
2023-02-15T15:04:35.993Z,8.4
2023-02-15T15:05:43.069Z,8.3
2023-02-15T15:06:50.199Z,8.3
2023-02-15T15:07:56.809Z,8.3
2023-02-15T15:09:03.946Z,8.3
2023-02-15T15:10:11.129Z,8.3
2023-02-15T15:11:18.180Z,8.3
2023-02-15T15:12:25.233Z,8.3
2023-02-15T15:13:31.862Z,8.3
2023-02-15T15:14:38.928Z,8.3
2023-02-15T15:15:48.071Z,8.3
2023-02-15T15:16:53.084Z,8.3
2023-02-15T15:18:00.232Z,8.3
2023-02-15T15:19:06.864Z,8.2
2023-02-15T15:20:13.870Z,8.3
2023-02-15T15:21:21.027Z,8.3
2023-02-15T15:22:28.141Z,8.3
2023-02-15T15:23:35.207Z,8.2
2023-02-15T15:24:41.798Z,8.3
2023-02-15T15:26:55.984Z,8.2
2023-02-15T15:28:03.118Z,8.3
2023-02-15T15:29:10.338Z,8.2
2023-02-15T15:30:16.947Z,8.2
2023-02-15T15:31:24.051Z,8.2
2023-02-15T15:32:31.077Z,8.1
2023-02-15T15:33:38.167Z,8.1
2023-02-15T15:34:45.259Z,8.1
2023-02-15T15:36:58.961Z,7.9
2023-02-15T15:38:06.014Z,7.9
2023-02-15T15:39:13.166Z,7.9
2023-02-15T15:40:20.295Z,7.8
2023-02-15T15:41:26.827Z,7.7
2023-02-15T15:42:33.901Z,7.7
2023-02-15T15:43:41.039Z,7.7
2023-02-15T15:44:48.214Z,7.6
2023-02-15T15:45:55.262Z,7.6
2023-02-15T15:47:01.833Z,7.5
2023-02-15T15:48:08.968Z,7.5
2023-02-15T15:49:16.132Z,7.5
2023-02-15T15:50:23.117Z,7.4
2023-02-15T15:51:30.285Z,7.4
2023-02-15T15:52:36.872Z,7.4
2023-02-15T15:53:43.912Z,7.3
2023-02-15T15:54:51.658Z,7.3
2023-02-15T15:55:58.183Z,7.2
2023-02-15T15:57:05.284Z,7.2
2023-02-15T15:58:11.889Z,7.2
2023-02-15T15:59:18.985Z,7.1
2023-02-15T16:00:26.096Z,7.1
2023-02-15T16:01:33.172Z,7.1